createdAt,value
2022-10-11T00:01:11.527Z,85.20
2022-10-11T00:04:00.479Z,85.40
2022-10-11T00:06:48.060Z,85.70
2022-10-11T00:09:35.727Z,85.40
2022-10-11T00:12:23.230Z,85.50
2022-10-11T00:15:15.266Z,85.30
2022-10-11T00:18:05.391Z,85.50
2022-10-11T00:21:03.223Z,85.50
2022-10-11T00:23:52.035Z,86.00
2022-10-11T00:26:43.233Z,85.80
2022-10-11T00:29:33.460Z,85.80
2022-10-11T00:32:21.114Z,85.80
2022-10-11T00:35:10.341Z,86.00
2022-10-11T00:37:59.254Z,86.10
2022-10-11T00:40:47.320Z,86.20
2022-10-11T00:43:35.095Z,86.30
2022-10-11T00:46:31.925Z,86.20
2022-10-11T00:49:28.171Z,86.80
2022-10-11T00:52:29.001Z,86.30
2022-10-11T00:55:22.096Z,86.30
2022-10-11T00:58:10.646Z,86.00
2022-10-11T01:00:58.255Z,86.00
2022-10-11T01:03:46.188Z,86.20
2022-10-11T01:06:35.862Z,86.20
2022-10-11T01:09:24.192Z,86.40
2022-10-11T01:12:20.007Z,86.60
2022-10-11T01:15:17.882Z,86.80
2022-10-11T01:18:11.797Z,86.80
2022-10-11T01:21:08.268Z,86.60
2022-10-11T01:24:35.963Z,86.60
2022-10-11T01:27:47.696Z,86.80
2022-10-11T01:30:38.297Z,87.00
2022-10-11T01:33:32.752Z,86.60
2022-10-11T01:36:29.357Z,86.80
2022-10-11T01:39:25.587Z,86.80
2022-10-11T01:42:14.906Z,86.80
2022-10-11T01:45:02.545Z,86.80
2022-10-11T01:48:04.725Z,86.50
2022-10-11T01:50:54.354Z,87.00
2022-10-11T01:54:14.514Z,86.60
2022-10-11T01:57:35.076Z,86.90
2022-10-11T02:00:25.009Z,87.00
2022-10-11T02:03:24.456Z,86.70
2022-10-11T02:06:18.744Z,86.90
2022-10-11T02:09:16.183Z,86.80
2022-10-11T02:12:08.940Z,87.00
2022-10-11T02:14:58.872Z,86.80
2022-10-11T02:17:50.269Z,86.80
2022-10-11T02:20:41.771Z,87.00
2022-10-11T02:23:33.971Z,86.90
2022-10-11T02:26:22.681Z,87.00
2022-10-11T02:29:13.644Z,86.80
2022-10-11T02:32:02.732Z,86.80
2022-10-11T02:34:55.493Z,86.80
2022-10-11T02:37:53.377Z,87.20
2022-10-11T02:40:47.803Z,87.50
2022-10-11T02:43:41.865Z,87.10
2022-10-11T02:46:31.261Z,87.00
2022-10-11T02:49:19.923Z,86.80
2022-10-11T02:52:08.127Z,86.70
2022-10-11T02:54:57.450Z,86.70
2022-10-11T02:57:45.059Z,86.80
2022-10-11T03:00:33.009Z,86.60
2022-10-11T03:03:20.556Z,86.70
2022-10-11T03:06:09.405Z,86.60
2022-10-11T03:08:56.757Z,86.60
2022-10-11T03:11:45.592Z,86.50
2022-10-11T03:14:33.227Z,86.60
2022-10-11T03:17:35.588Z,86.50
2022-10-11T03:20:24.475Z,86.60
2022-10-11T03:23:12.885Z,86.40
2022-10-11T03:26:01.284Z,86.30
2022-10-11T03:28:54.388Z,86.30
2022-10-11T03:31:42.064Z,86.50
2022-10-11T03:34:29.711Z,86.20
2022-10-11T03:37:17.252Z,86.30
2022-10-11T03:40:06.245Z,86.30
2022-10-11T03:42:55.067Z,86.30
2022-10-11T03:45:45.630Z,86.20
2022-10-11T03:48:33.489Z,86.30
2022-10-11T03:51:21.942Z,86.20
2022-10-11T03:54:09.550Z,85.90
2022-10-11T03:57:27.729Z,85.80
2022-10-11T04:38:01.674Z,84.60
2022-10-11T04:41:24.937Z,84.00
2022-10-11T04:45:18.190Z,83.70
2022-10-11T04:49:05.147Z,84.30
2022-10-11T04:52:21.106Z,84.10
2022-10-11T04:56:15.830Z,84.30
2022-10-11T04:59:53.630Z,84.30
2022-10-11T05:02:49.331Z,84.20
2022-10-11T05:05:53.449Z,84.20
2022-10-11T05:12:58.093Z,84.10
2022-10-11T05:16:13.623Z,84.50
2022-10-11T05:19:09.865Z,84.20
2022-10-11T05:22:42.852Z,84.40
2022-10-11T05:26:12.737Z,85.70
2022-10-11T05:29:28.512Z,85.50
2022-10-11T05:33:13.349Z,85.50
2022-10-11T05:36:33.389Z,85.60
2022-10-11T05:39:32.995Z,85.30
2022-10-11T05:42:45.148Z,84.90
2022-10-11T05:45:48.672Z,84.70
2022-10-11T05:49:46.551Z,85.20
2022-10-11T05:53:35.278Z,85.10
2022-10-11T05:57:04.779Z,85.00
2022-10-11T06:00:13.628Z,85.00
2022-10-11T06:03:06.467Z,84.50
2022-10-11T06:06:08.462Z,84.20
2022-10-11T06:09:43.102Z,84.60
2022-10-11T06:16:57.221Z,84.70
2022-10-11T06:20:50.382Z,84.30
2022-10-11T06:28:09.878Z,84.50
2022-10-11T06:30:53.225Z,84.90
2022-10-11T06:33:58.761Z,84.60
2022-10-11T06:39:34.801Z,84.60
2022-10-11T06:42:41.305Z,84.60
2022-10-11T06:45:37.101Z,85.00
2022-10-11T06:51:45.532Z,84.60
2022-10-11T06:54:20.724Z,84.90
2022-10-11T06:57:54.773Z,84.80
2022-10-11T07:01:36.673Z,85.50
2022-10-11T07:04:17.835Z,85.00
2022-10-11T07:10:27.416Z,84.80
2022-10-11T07:16:36.163Z,84.70
2022-10-11T07:19:16.678Z,84.60
2022-10-11T07:21:50.835Z,85.00
2022-10-11T07:24:51.697Z,84.90
2022-10-11T07:27:26.846Z,85.00
2022-10-11T07:30:09.966Z,85.00
2022-10-11T07:34:06.037Z,85.10
2022-10-11T07:43:56.000Z,85.00
2022-10-11T07:46:26.018Z,85.10
2022-10-11T07:48:59.603Z,85.40
2022-10-11T07:51:34.659Z,85.50
2022-10-11T07:54:08.752Z,85.60
2022-10-11T07:56:40.281Z,85.60
2022-10-11T08:02:50.847Z,85.90
2022-10-11T08:05:23.916Z,85.70
2022-10-11T08:07:57.132Z,85.50
2022-10-11T08:10:27.023Z,85.30
2022-10-11T08:13:26.137Z,85.10
2022-10-11T08:16:07.549Z,85.40
2022-10-11T08:18:41.642Z,85.30
2022-10-11T08:21:20.399Z,85.20
2022-10-11T08:24:00.597Z,85.50
2022-10-11T08:26:39.359Z,85.80
2022-10-11T08:29:13.501Z,86.30
2022-10-11T08:31:57.801Z,86.70
2022-10-11T08:35:48.771Z,86.70
2022-10-11T08:38:22.576Z,87.00
2022-10-11T08:41:02.786Z,87.60
2022-10-11T08:44:58.178Z,88.00
2022-10-11T08:47:44.377Z,87.90
2022-10-11T09:08:42.024Z,86.20
2022-10-11T09:11:44.380Z,86.60
2022-10-11T09:18:56.979Z,87.10
2022-10-11T09:21:56.639Z,87.00
2022-10-11T09:24:38.250Z,87.40
2022-10-11T09:27:25.896Z,87.80
2022-10-11T09:30:14.554Z,86.90
2022-10-11T09:32:47.091Z,86.80
2022-10-11T09:35:19.493Z,86.00
2022-10-11T09:38:00.592Z,85.90
2022-10-11T09:40:44.723Z,85.70
2022-10-11T09:43:14.343Z,85.50
2022-10-11T09:45:49.294Z,86.00
2022-10-11T09:48:24.476Z,86.40
2022-10-11T09:50:56.209Z,85.90
2022-10-11T09:53:57.148Z,85.60
2022-10-11T09:56:28.945Z,84.60
2022-10-11T09:59:27.453Z,85.20
2022-10-11T10:02:24.828Z,84.20
2022-10-11T10:05:16.144Z,84.00
2022-10-11T10:08:05.495Z,84.00
2022-10-11T10:10:42.368Z,83.80
2022-10-11T10:13:22.876Z,84.50
2022-10-11T10:15:54.049Z,83.70
2022-10-11T10:18:28.638Z,84.30
2022-10-11T10:21:00.598Z,83.70
2022-10-11T10:23:32.508Z,83.70
2022-10-11T10:26:16.942Z,83.30
2022-10-11T10:29:20.098Z,82.70
2022-10-11T10:34:59.483Z,84.00
2022-10-11T10:37:33.989Z,82.80
2022-10-11T10:40:08.261Z,83.20
2022-10-11T10:42:39.286Z,83.40
2022-10-11T10:45:20.858Z,83.10
2022-10-11T10:48:17.308Z,82.80
2022-10-11T10:50:56.343Z,81.80
2022-10-11T10:53:34.195Z,82.10
2022-10-11T10:56:11.841Z,82.30
2022-10-11T10:59:16.128Z,82.20
2022-10-11T11:01:57.136Z,81.50
2022-10-11T11:04:32.210Z,81.90
2022-10-11T11:07:11.032Z,81.40
2022-10-11T11:09:51.277Z,81.00
2022-10-11T11:12:35.811Z,81.00
2022-10-11T11:15:13.171Z,81.00
2022-10-11T11:18:00.167Z,81.50
2022-10-11T11:20:48.297Z,80.40
2022-10-11T11:23:27.214Z,81.00
2022-10-11T11:26:07.971Z,81.00
2022-10-11T11:28:57.164Z,81.00
2022-10-11T11:31:55.456Z,80.80
2022-10-11T11:34:27.986Z,80.10
2022-10-11T11:37:01.769Z,80.40
2022-10-11T11:39:36.203Z,80.20
2022-10-11T11:42:10.134Z,80.00
2022-10-11T11:44:42.766Z,79.80
2022-10-11T11:47:21.509Z,79.50
2022-10-11T11:49:57.167Z,78.60
2022-10-11T11:52:32.122Z,78.90
2022-10-11T11:55:10.639Z,78.50
2022-10-11T11:57:55.325Z,77.40
2022-10-11T12:00:28.198Z,78.00
2022-10-11T12:03:01.954Z,77.40
2022-10-11T12:05:36.011Z,77.60
2022-10-11T12:08:08.396Z,77.10
2022-10-11T12:10:39.932Z,77.80
2022-10-11T12:13:20.885Z,77.60
2022-10-11T12:16:10.862Z,76.90
2022-10-11T12:18:53.792Z,76.60
2022-10-11T12:21:31.862Z,75.60
2022-10-11T12:24:02.644Z,75.10
2022-10-11T12:26:45.614Z,76.40
2022-10-11T12:29:47.713Z,76.30
2022-10-11T12:32:54.776Z,76.40
2022-10-11T12:36:02.702Z,75.80
2022-10-11T12:38:39.761Z,76.10
2022-10-11T12:41:51.201Z,76.40
2022-10-11T12:44:26.337Z,75.90
2022-10-11T12:47:32.924Z,76.10
2022-10-11T12:50:19.395Z,76.20
2022-10-11T12:52:59.295Z,75.90
2022-10-11T12:55:40.092Z,76.20
2022-10-11T12:58:31.111Z,76.50
2022-10-11T13:01:22.144Z,76.60
2022-10-11T13:04:06.452Z,76.20
2022-10-11T13:06:39.770Z,76.10
2022-10-11T13:09:22.299Z,76.20
2022-10-11T13:11:56.152Z,76.00
2022-10-11T13:14:28.005Z,76.00
2022-10-11T13:17:08.767Z,76.40
2022-10-11T13:22:21.612Z,76.20
2022-10-11T13:24:52.082Z,76.20
2022-10-11T13:27:24.670Z,76.20
2022-10-11T13:29:59.311Z,75.90
2022-10-11T13:32:32.207Z,75.60
2022-10-11T13:35:04.924Z,75.70
2022-10-11T13:37:43.792Z,76.20
2022-10-11T13:40:17.719Z,76.00
2022-10-11T13:42:48.561Z,76.10
2022-10-11T13:45:22.299Z,76.30
2022-10-11T13:47:52.961Z,76.20
2022-10-11T13:50:30.706Z,76.50
2022-10-11T13:53:03.589Z,76.70
2022-10-11T13:55:37.066Z,76.30
2022-10-11T13:58:18.533Z,76.40
2022-10-11T14:00:56.470Z,76.90
2022-10-11T14:03:38.770Z,76.40
2022-10-11T14:06:08.987Z,76.40
2022-10-11T14:08:41.045Z,76.50
2022-10-11T14:11:14.300Z,76.80
2022-10-11T14:13:46.328Z,76.60
2022-10-11T14:16:31.373Z,77.00
2022-10-11T14:19:11.793Z,76.90
2022-10-11T14:21:52.492Z,76.70
2022-10-11T14:24:22.739Z,76.70
2022-10-11T14:26:56.284Z,76.60
2022-10-11T14:29:29.318Z,77.00
2022-10-11T14:32:05.241Z,76.80
2022-10-11T14:34:35.863Z,76.90
2022-10-11T14:37:05.461Z,76.80
2022-10-11T14:39:34.938Z,77.20
2022-10-11T14:42:05.979Z,76.90
2022-10-11T14:44:34.971Z,77.10
2022-10-11T14:47:06.634Z,77.00
2022-10-11T14:49:38.740Z,77.20
2022-10-11T14:52:11.580Z,76.90
2022-10-11T14:54:40.986Z,77.00
2022-10-11T14:57:14.034Z,76.70
2022-10-11T14:59:43.143Z,76.70
2022-10-11T15:02:13.212Z,77.10
2022-10-11T15:04:42.381Z,77.20
2022-10-11T15:07:13.497Z,77.00
2022-10-11T15:09:42.944Z,77.10
2022-10-11T15:12:13.391Z,76.60
2022-10-11T15:14:42.726Z,76.60
2022-10-11T15:17:13.812Z,77.20
2022-10-11T15:19:42.966Z,77.00
2022-10-11T15:22:12.262Z,76.30
2022-10-11T15:24:41.969Z,76.80
2022-10-11T15:27:12.486Z,76.80
2022-10-11T15:29:41.603Z,77.20
2022-10-11T15:32:10.780Z,76.90
2022-10-11T15:34:39.881Z,76.60
2022-10-11T15:37:09.073Z,76.40
2022-10-11T15:39:38.218Z,76.90
2022-10-11T15:42:08.125Z,77.00
2022-10-11T15:44:38.575Z,77.00
2022-10-11T15:47:07.780Z,76.70
2022-10-11T15:49:36.885Z,76.80
2022-10-11T15:52:06.192Z,77.00
2022-10-11T15:54:35.294Z,77.10
2022-10-11T15:57:04.578Z,77.20
2022-10-11T15:59:33.593Z,77.30
2022-10-11T16:02:04.073Z,77.30
2022-10-11T16:04:33.129Z,77.20
2022-10-11T16:07:02.116Z,77.20
2022-10-11T16:09:31.146Z,77.30
2022-10-11T16:12:00.193Z,77.40
2022-10-11T16:14:31.559Z,77.30
2022-10-11T16:17:03.583Z,77.70
2022-10-11T16:19:33.945Z,77.70
2022-10-11T16:22:02.939Z,77.90
2022-10-11T16:24:32.021Z,77.80
2022-10-11T16:27:01.123Z,77.80
2022-10-11T16:29:30.267Z,77.80
2022-10-11T16:31:59.287Z,77.90
2022-10-11T16:34:28.271Z,77.80
2022-10-11T16:36:58.657Z,77.90
2022-10-11T16:39:28.097Z,77.80
2022-10-11T16:41:57.192Z,77.70
2022-10-11T16:44:27.783Z,77.50
2022-10-11T16:46:57.421Z,77.40
2022-10-11T16:49:29.220Z,77.10
2022-10-11T16:52:00.299Z,77.00
2022-10-11T16:54:30.323Z,77.00
2022-10-11T16:57:00.518Z,77.10
2022-10-11T16:59:29.588Z,77.00
2022-10-11T17:01:58.703Z,76.70
2022-10-11T17:04:27.963Z,76.80
2022-10-11T17:06:58.150Z,77.00
2022-10-11T17:09:28.875Z,76.80
2022-10-11T17:11:57.892Z,76.90
2022-10-11T17:14:26.880Z,77.10
2022-10-11T17:16:55.907Z,77.00
2022-10-11T17:19:24.864Z,77.00
2022-10-11T17:21:53.853Z,77.00
2022-10-11T17:24:22.895Z,77.00
2022-10-11T17:26:53.348Z,76.90
2022-10-11T17:29:24.089Z,76.50
2022-10-11T17:31:53.508Z,76.80
2022-10-11T17:34:22.775Z,77.10
2022-10-11T17:36:51.895Z,76.90
2022-10-11T17:39:23.389Z,76.90
2022-10-11T17:41:54.852Z,76.90
2022-10-11T17:44:23.988Z,76.90
2022-10-11T17:46:53.096Z,76.90
2022-10-11T17:49:22.077Z,76.90
2022-10-11T17:51:51.133Z,76.80
2022-10-11T17:54:20.130Z,77.00
2022-10-11T17:56:50.317Z,76.90
2022-10-11T17:59:22.384Z,76.90
2022-10-11T18:01:52.030Z,77.20
2022-10-11T18:04:22.164Z,76.90
2022-10-11T18:06:51.553Z,77.20
2022-10-11T18:09:21.724Z,77.00
2022-10-11T18:11:51.347Z,77.20
2022-10-11T18:14:21.881Z,77.30
2022-10-11T18:16:51.059Z,77.40
2022-10-11T18:19:20.074Z,77.30
2022-10-11T18:21:49.102Z,77.40
2022-10-11T18:24:18.575Z,77.20
2022-10-11T18:26:48.018Z,77.30
2022-10-11T18:29:17.286Z,76.90
2022-10-11T18:31:47.708Z,77.00
2022-10-11T18:34:16.738Z,77.20
2022-10-11T18:36:45.756Z,78.10
2022-10-11T18:39:16.108Z,77.50
2022-10-11T18:41:45.401Z,77.60
2022-10-11T18:44:16.705Z,77.40
2022-10-11T18:46:48.552Z,77.40
2022-10-11T18:49:18.299Z,77.50
2022-10-11T18:51:48.793Z,77.20
2022-10-11T18:54:21.136Z,77.30
2022-10-11T18:56:50.831Z,77.20
2022-10-11T18:59:20.325Z,77.20
2022-10-11T19:01:52.350Z,77.40
2022-10-11T19:04:21.897Z,77.30
2022-10-11T19:06:53.292Z,77.30
2022-10-11T19:09:26.263Z,77.10
2022-10-11T19:11:57.370Z,77.00
2022-10-11T19:14:30.227Z,77.20
2022-10-11T19:17:01.129Z,77.20
2022-10-11T19:19:32.826Z,77.30
2022-10-11T19:22:03.379Z,77.10
2022-10-11T19:24:33.745Z,76.80
2022-10-11T19:27:03.181Z,76.80
2022-10-11T19:29:33.100Z,77.10
2022-10-11T19:32:04.493Z,77.40
2022-10-11T19:34:33.570Z,77.80
2022-10-11T19:37:04.052Z,77.90
2022-10-11T19:39:33.384Z,77.80
2022-10-11T19:42:04.313Z,78.00
2022-10-11T19:44:37.157Z,77.80
2022-10-11T19:47:10.177Z,77.60
2022-10-11T19:49:39.246Z,77.90
2022-10-11T19:52:09.550Z,77.60
2022-10-11T19:54:38.499Z,77.70
2022-10-11T19:57:08.812Z,77.60
2022-10-11T19:59:37.855Z,77.70
2022-10-11T20:02:07.107Z,77.40
2022-10-11T20:04:55.760Z,77.30
2022-10-11T20:07:43.411Z,77.60
2022-10-11T20:10:30.671Z,77.40
2022-10-11T20:13:18.137Z,77.50
2022-10-11T20:16:08.080Z,77.50
2022-10-11T20:18:58.327Z,77.50
2022-10-11T20:21:47.163Z,77.40
2022-10-11T20:24:34.709Z,77.80
2022-10-11T20:27:23.005Z,77.90
2022-10-11T20:30:13.940Z,77.80
2022-10-11T20:33:01.197Z,77.40
2022-10-11T20:35:59.387Z,77.10
2022-10-11T20:38:51.111Z,77.40
2022-10-11T20:41:40.365Z,77.00
2022-10-11T20:44:27.927Z,76.80
2022-10-11T20:47:15.174Z,76.80
2022-10-11T20:50:02.725Z,77.20
2022-10-11T20:52:50.403Z,77.00
2022-10-11T20:55:39.078Z,77.00
2022-10-11T20:58:26.709Z,77.40
2022-10-11T21:01:17.487Z,77.30
2022-10-11T21:04:07.400Z,77.50
2022-10-11T21:06:54.848Z,77.60
2022-10-11T21:09:42.173Z,77.00
2022-10-11T21:12:31.173Z,76.90
2022-10-11T21:15:19.207Z,77.20
2022-10-11T21:18:06.734Z,77.40
2022-10-11T21:20:54.162Z,77.60
2022-10-11T21:23:42.269Z,77.60
2022-10-11T21:26:31.049Z,77.70
2022-10-11T21:29:20.182Z,77.50
2022-10-11T21:32:10.828Z,77.70
2022-10-11T21:35:00.963Z,77.70
2022-10-11T21:37:48.159Z,77.70
2022-10-11T21:40:40.301Z,77.70
2022-10-11T21:43:27.605Z,78.00
2022-10-11T21:46:19.912Z,77.90
2022-10-11T21:49:07.522Z,78.10
2022-10-11T21:51:55.237Z,78.10
2022-10-11T21:54:42.541Z,78.40
2022-10-11T21:57:29.755Z,78.00
2022-10-11T22:00:17.101Z,78.20
2022-10-11T22:03:05.774Z,78.20
2022-10-11T22:05:53.416Z,78.30
2022-10-11T22:08:41.533Z,78.20
2022-10-11T22:11:28.963Z,78.30
2022-10-11T22:14:17.477Z,78.20
2022-10-11T22:17:05.035Z,78.50
2022-10-11T22:19:53.766Z,78.60
2022-10-11T22:22:41.258Z,78.40
2022-10-11T22:25:28.546Z,78.30
2022-10-11T22:28:16.138Z,78.60
2022-10-11T22:31:03.860Z,78.90
2022-10-11T22:33:55.006Z,78.80
2022-10-11T22:36:43.633Z,78.50
2022-10-11T22:39:31.412Z,78.50
2022-10-11T22:42:19.013Z,78.60
2022-10-11T22:45:07.684Z,79.10
2022-10-11T22:47:55.255Z,78.80
2022-10-11T22:50:42.636Z,78.80
2022-10-11T22:53:31.652Z,78.90
2022-10-11T22:56:19.087Z,78.80
2022-10-11T22:59:06.279Z,78.80
2022-10-11T23:01:53.651Z,78.70
2022-10-11T23:04:41.077Z,78.80
2022-10-11T23:07:28.417Z,78.60
2022-10-11T23:10:17.628Z,78.70
2022-10-11T23:13:05.436Z,78.60
2022-10-11T23:15:53.171Z,78.90
2022-10-11T23:18:40.952Z,79.30
2022-10-11T23:21:28.279Z,79.40
2022-10-11T23:24:15.756Z,79.40
2022-10-11T23:27:04.955Z,79.30
2022-10-11T23:29:52.309Z,79.20
2022-10-11T23:32:39.502Z,79.30
2022-10-11T23:39:06.527Z,79.50
2022-10-11T23:41:54.237Z,79.00
2022-10-11T23:44:43.137Z,79.00
2022-10-11T23:47:30.907Z,79.30
2022-10-11T23:50:18.567Z,79.40
2022-10-11T23:53:06.266Z,79.40
2022-10-11T23:55:53.527Z,79.10
2022-10-11T23:58:41.310Z,79.40
